Manila Express — VRCX7 — position and weather

sailwx.info

Track history (hours):
 
Tides and Currents Weather Stations Pressure Air Temp Water Temp Dewpoint Dewpoint Depression Visibility Wind Speed Wind Dir Waves Ship Positions

Manila Express

Last reported at 2014-Jul-24 16:30 UTC. Time now 2014-Jul-24 16:59 UTC.
Position N 49°53' W 001°27'.

Length 260 m; draft 10.9 m.

Type: Ship (hazmat cat A). MMSI: 477830800.

Date/timePositionNaut miles runAvg speedWind from/ knotsBaromVisibWave heightAir tempDewpointWater temp
2014-Jul-24 16:30N 49°53' W 001°27'1212.2
2014-Jul-24 15:32N 49°49' W 001°09'1313.3
2014-Jul-24 14:33N 49°45' W 000°50'1514.6
2014-Jul-24 13:33N 49°39' W 000°30'1414.5
2014-Jul-24 12:33N 49°33' W 000°09'1312.8
2014-Jul-24 11:33N 49°28' E 000°09'0 0.1
2014-Jul-24 10:33N 49°28' E 000°09'0 0.0
2014-Jul-24 09:33N 49°28' E 000°09'0 0.0
2014-Jul-24 08:33N 49°28' E 000°09'0 0.0
2014-Jul-24 07:33N 49°28' E 000°09'0 0.0
2014-Jul-24 06:33N 49°28' E 000°09'0 0.0
2014-Jul-24 05:33N 49°28' E 000°09'0 0.0
2014-Jul-24 04:33N 49°28' E 000°09'3 2.6
2014-Jul-24 03:34N 49°29' E 000°05'1211.9
2014-Jul-24 02:33N 49°33' W 000°12'1010.0
2014-Jul-24 01:33N 49°38' W 000°25'1515.2
2014-Jul-24 00:33N 49°53' W 000°27'2518.5
2014-Jul-23 23:12N 50°17' W 000°14'1517.6
2014-Jul-23 22:22N 50°28' E 000°02'1718.3
2014-Jul-23 21:27N 50°33' E 000°27'1618.1
2014-Jul-23 20:33N 50°41' E 000°48'2318.1
2014-Jul-23 19:17N 50°57' E 001°15'1317.5
2014-Jul-23 18:33N 51°06' E 001°30'1919.3
2014-Jul-23 17:33N 51°19' E 001°52'2121.2
2014-Jul-23 16:33N 51°36' E 002°12'2121.3
2014-Jul-23 15:34N 51°53' E 002°33'2020.1
2014-Jul-23 14:34N 52°03' E 003°01'2020.3
2014-Jul-23 13:33N 52°04' E 003°34'1514.7
2014-Jul-23 12:33N 52°01' E 003°57'1211.5
2014-Jul-23 11:33N 51°56' E 004°14'7 6.9
2014-Jul-23 10:33N 51°53' E 004°24'0 0.4
2014-Jul-23 09:28N 51°53' E 004°24'0 0.0
2014-Jul-23 08:31N 51°53' E 004°24'0 0.0
2014-Jul-23 07:32N 51°53' E 004°24'0 0.0
2014-Jul-23 06:28N 51°53' E 004°24'0 0.0
2014-Jul-23 05:31N 51°53' E 004°24'0 0.0
2014-Jul-23 04:28N 51°53' E 004°24'0 0.0
2014-Jul-23 03:28N 51°53' E 004°24'0 0.0
2014-Jul-23 02:31N 51°53' E 004°24'0 0.0
2014-Jul-23 01:31N 51°53' E 004°24'0 0.0
2014-Jul-23 00:28N 51°53' E 004°24'0 0.0
2014-Jul-22 23:31N 51°53' E 004°24'0 0.0
2014-Jul-22 22:31N 51°53' E 004°24'0 0.0
2014-Jul-22 21:31N 51°53' E 004°24'0 0.0
2014-Jul-22 20:31N 51°53' E 004°24'0 0.0
2014-Jul-22 19:31N 51°53' E 004°24'0 0.0
2014-Jul-22 18:31N 51°53' E 004°24'0 0.0
2014-Jul-22 17:22N 51°53' E 004°24'0 0.0
2014-Jul-22 16:33N 51°53' E 004°24'0 0.0
2014-Jul-22 15:27N 51°53' E 004°24'0 0.0
2014-Jul-22 14:33N 51°53' E 004°24'0 0.0
2014-Jul-22 13:30N 51°53' E 004°24'0 0.0
2014-Jul-22 12:33N 51°53' E 004°24'4 4.0
2014-Jul-22 11:33N 51°54' E 004°18'10 9.7
2014-Jul-22 10:33N 51°59' E 004°05'1212.0
2014-Jul-22 09:33N 52°03' E 003°46'1111.1
2014-Jul-22 08:33N 52°14' E 003°47'1111.0
2014-Jul-22 07:33N 52°25' E 003°49'1313.4
2014-Jul-22 06:33N 52°38' E 003°53'1413.6
2014-Jul-22 05:33N 52°51' E 003°58'1414.3
2014-Jul-22 04:33N 53°03' E 004°11'1515.4
2014-Jul-22 03:33N 53°15' E 004°28'1515.3
2014-Jul-22 02:33N 53°28' E 004°40'1514.9
2014-Jul-22 01:33N 53°35' E 005°02'1514.9
2014-Jul-22 00:33N 53°38' E 005°27'1514.5
2014-Jul-21 23:33N 53°43' E 005°50'1514.7
2014-Jul-21 22:33N 53°48' E 006°13'1514.9
2014-Jul-21 21:33N 53°52' E 006°37'1615.1
2014-Jul-21 20:30N 53°56' E 007°04'315.0
2014-Jul-21 20:18N 53°57' E 007°09'1115.2
2014-Jul-21 19:33N 53°59' E 007°28'1514.9
2014-Jul-21 18:33N 54°01' E 007°52'1313.5
2014-Jul-21 17:34N 54°00' E 008°15'1615.6
2014-Jul-21 16:33N 53°55' E 008°40'1313.0
2014-Jul-21 15:33N 53°52' E 009°01'1313.1
2014-Jul-21 14:33N 53°48' E 009°23'1414.0
2014-Jul-21 13:33N 53°36' E 009°35'1111.2
2014-Jul-21 12:33N 53°33' E 009°53'1 0.8
2014-Jul-21 11:31N 53°32' E 009°55'0 0.0
2014-Jul-21 10:31N 53°32' E 009°55'0 0.0
2014-Jul-21 09:31N 53°32' E 009°55'0 0.0
2014-Jul-21 08:33N 53°32' E 009°55'0 0.0
2014-Jul-21 07:33N 53°32' E 009°55'0 0.0
2014-Jul-21 06:30N 53°32' E 009°55'0 0.0
2014-Jul-21 05:30N 53°32' E 009°55'0 0.0
2014-Jul-21 04:31N 53°32' E 009°55'0 0.0
2014-Jul-21 03:33N 53°32' E 009°55'0 0.0
2014-Jul-21 02:33N 53°32' E 009°55'0 0.0
2014-Jul-21 01:33N 53°32' E 009°55'0 0.0
2014-Jul-21 00:30N 53°32' E 009°55'0 0.0
2014-Jul-20 23:33N 53°32' E 009°55'0 0.0
2014-Jul-20 22:30N 53°32' E 009°55'0 0.0
2014-Jul-20 21:33N 53°32' E 009°55'0 0.0
2014-Jul-20 20:33N 53°32' E 009°55'0 0.0
2014-Jul-20 19:33N 53°32' E 009°55'0 0.0
2014-Jul-20 18:33N 53°32' E 009°55'0 0.0
2014-Jul-20 17:33N 53°32' E 009°55'1 1.2
2014-Jul-20 16:33N 53°32' E 009°53'8 7.7
2014-Jul-20 15:33N 53°34' E 009°40'9 9.1
2014-Jul-20 14:32N 53°41' E 009°30'1111.6
2014-Jul-20 13:32N 53°51' E 009°19'1010.4
2014-Jul-20 12:33N 53°52' E 009°02'1211.8
2014-Jul-20 11:33N 53°53' E 008°42'1414.3
2014-Jul-20 10:33N 53°59' E 008°20'1111.2
2014-Jul-20 09:34N 53°60' E 008°01'8 7.6
2014-Jul-20 08:33N 54°00' E 007°48'1 1.4
2014-Jul-20 07:34N 54°00' E 007°46'4 3.6
2014-Jul-20 06:33N 53°57' E 007°43'6 6.3
2014-Jul-20 05:33N 53°56' E 007°33'1716.7
2014-Jul-20 04:33N 53°52' E 007°05'1212.5
2014-Jul-20 03:33N 53°49' E 006°44'10 9.9
2014-Jul-20 02:33N 53°46' E 006°28'10 9.9
2014-Jul-20 01:33N 53°43' E 006°12'10 9.9
2014-Jul-20 00:33N 53°40' E 005°56'10 9.9
2014-Jul-19 23:33N 53°37' E 005°41'1010.0
2014-Jul-19 22:33N 53°33' E 005°25'1010.0
2014-Jul-19 21:33N 53°30' E 005°09'1010.0
2014-Jul-19 20:33N 53°26' E 004°53'10 9.6
2014-Jul-19 19:33N 53°21' E 004°40'1010.1
2014-Jul-19 18:32N 53°12' E 004°31'32 9.7
2014-Jul-19 15:17N 52°44' E 004°06'7 9.5
2014-Jul-19 14:32N 52°39' E 003°58'9 9.4
2014-Jul-19 13:33N 52°32' E 003°48'10 9.6
2014-Jul-19 12:32N 52°25' E 003°36'11 9.5
2014-Jul-19 11:22N 52°18' E 003°23'1915.9
2014-Jul-19 10:09N 52°12' E 002°53'1218.8
2014-Jul-19 09:30N 52°06' E 002°36'1919.7
2014-Jul-19 08:34N 51°54' E 002°12'1817.9
2014-Jul-19 07:34N 51°50' E 001°44'1212.1
2014-Jul-19 06:33N 51°43' E 001°29'1919.1
2014-Jul-19 05:33N 51°31' E 001°04'1716.7
2014-Jul-19 04:34N 51°30' E 000°37'1110.6
2014-Jul-19 03:34N 51°27' E 000°21'1 0.9
2014-Jul-19 02:34N 51°28' E 000°20'0 0.0
2014-Jul-19 01:31N 51°28' E 000°20'0 0.0
2014-Jul-19 00:32N 51°28' E 000°20'0 0.0
2014-Jul-18 23:33N 51°28' E 000°20'0 0.0
2014-Jul-18 22:33N 51°28' E 000°20'0 0.0
2014-Jul-18 21:33N 51°28' E 000°20'0 0.0
2014-Jul-18 20:33N 51°28' E 000°20'0 0.0
2014-Jul-18 19:34N 51°28' E 000°20'0 0.0
2014-Jul-18 18:34N 51°28' E 000°20'0 0.0
2014-Jul-18 17:34N 51°28' E 000°20'0 0.0
2014-Jul-18 16:34N 51°28' E 000°20'0 0.0
2014-Jul-18 15:34N 51°28' E 000°20'0 0.0
2014-Jul-18 14:34N 51°28' E 000°20'0 0.0
2014-Jul-18 13:34N 51°28' E 000°20'0 0.0
2014-Jul-18 12:34N 51°28' E 000°20'0 0.0
2014-Jul-18 11:34N 51°28' E 000°20'0 0.0
2014-Jul-18 10:34N 51°28' E 000°20'0 0.0
2014-Jul-18 09:34N 51°28' E 000°20'0 0.0
2014-Jul-18 08:34N 51°28' E 000°20'0 0.0
2014-Jul-18 07:34N 51°28' E 000°20'0 0.0
2014-Jul-18 06:34N 51°28' E 000°20'0 0.0
2014-Jul-18 05:33N 51°28' E 000°20'0 0.0
2014-Jul-18 04:33N 51°28' E 000°20'0 0.0
2014-Jul-18 03:33N 51°28' E 000°20'0 0.0
2014-Jul-18 02:33N 51°28' E 000°20'4 4.3
2014-Jul-18 01:33N 51°28' E 000°27'1010.0
2014-Jul-18 00:34N 51°30' E 000°43'1413.7
2014-Jul-17 23:33N 51°31' E 001°05'1818.4
2014-Jul-17 22:33N 51°42' E 001°28'1313.3
2014-Jul-17 21:33N 51°52' E 001°44'1111.2
2014-Jul-17 20:34N 51°41' E 001°50'1110.9
2014-Jul-17 19:33N 51°30' E 001°48'1312.6
2014-Jul-17 18:33N 51°18' E 001°41'1212.0
2014-Jul-17 17:33N 51°06' E 001°40'1514.7
2014-Jul-17 16:34N 50°55' E 001°25'1515.0
2014-Jul-17 15:33N 50°41' E 001°16'1515.1
2014-Jul-17 14:33N 50°32' E 000°57'1514.9
2014-Jul-17 13:33N 50°27' E 000°35'1514.8
2014-Jul-17 12:31N 50°22' E 000°12'1715.7
2014-Jul-17 11:28N 50°18' W 000°13'1416.0
2014-Jul-17 10:34N 50°14' W 000°34'1616.0
2014-Jul-17 09:34N 50°10' W 000°59'1616.0
2014-Jul-17 08:34N 50°06' W 001°23'1615.9
2014-Jul-17 07:33N 50°02' W 001°47'1715.9
2014-Jul-17 06:28N 49°56' W 002°12'1415.5
2014-Jul-17 05:33N 49°52' W 002°33'1715.7
2014-Jul-17 04:29N 49°47' W 002°58'61515.8
2014-Jul-15 13:32N 40°45' W 009°51'10416.9
2014-Jul-15 07:22N 39°01' W 009°51'1516.5
2014-Jul-15 06:26N 38°46' W 009°52'1916.8
2014-Jul-15 05:16N 38°27' W 009°47'2916.8
2014-Jul-15 03:34N 37°59' W 009°38'1717.0
2014-Jul-15 02:33N 37°42' W 009°34'1716.8
2014-Jul-15 01:33N 37°26' W 009°29'1616.4
2014-Jul-15 00:33N 37°10' W 009°24'3515.1
2014-Jul-14 22:13N 36°42' W 008°57'1217.0
2014-Jul-14 21:32N 36°38' W 008°43'1616.5
2014-Jul-14 20:33N 36°33' W 008°24'1716.5
2014-Jul-14 19:33N 36°28' W 008°05'1716.6
2014-Jul-14 18:33N 36°22' W 007°45'1716.5
2014-Jul-14 17:31N 36°17' W 007°25'1616.7
2014-Jul-14 16:33N 36°12' W 007°06'  
Track history (hours):
 
Tides and Currents Weather Stations Pressure Air Temp Water Temp Dewpoint Dewpoint Depression Visibility Wind Speed Wind Dir Waves Ship Positions

Manila Express

Last reported at 2014-Jul-24 16:30 UTC. Time now 2014-Jul-24 16:59 UTC.
Position N 49°53' W 001°27'.

Length 260 m; draft 10.9 m.

Type: Ship (hazmat cat A). MMSI: 477830800.

Date/timePositionNaut miles runAvg speedWind from/ knotsBaromVisibWave heightAir tempDewpointWater temp
2014-Jul-24 16:30N 49°53' W 001°27'1212.2
2014-Jul-24 15:32N 49°49' W 001°09'1313.3
2014-Jul-24 14:33N 49°45' W 000°50'1514.6
2014-Jul-24 13:33N 49°39' W 000°30'1414.5
2014-Jul-24 12:33N 49°33' W 000°09'1312.8
2014-Jul-24 11:33N 49°28' E 000°09'0 0.1
2014-Jul-24 10:33N 49°28' E 000°09'0 0.0
2014-Jul-24 09:33N 49°28' E 000°09'0 0.0
2014-Jul-24 08:33N 49°28' E 000°09'0 0.0
2014-Jul-24 07:33N 49°28' E 000°09'0 0.0
2014-Jul-24 06:33N 49°28' E 000°09'0 0.0
2014-Jul-24 05:33N 49°28' E 000°09'0 0.0
2014-Jul-24 04:33N 49°28' E 000°09'3 2.6
2014-Jul-24 03:34N 49°29' E 000°05'1211.9
2014-Jul-24 02:33N 49°33' W 000°12'1010.0
2014-Jul-24 01:33N 49°38' W 000°25'1515.2
2014-Jul-24 00:33N 49°53' W 000°27'2518.5
2014-Jul-23 23:12N 50°17' W 000°14'1517.6
2014-Jul-23 22:22N 50°28' E 000°02'1718.3
2014-Jul-23 21:27N 50°33' E 000°27'1618.1
2014-Jul-23 20:33N 50°41' E 000°48'2318.1
2014-Jul-23 19:17N 50°57' E 001°15'1317.5
2014-Jul-23 18:33N 51°06' E 001°30'1919.3
2014-Jul-23 17:33N 51°19' E 001°52'2121.2
2014-Jul-23 16:33N 51°36' E 002°12'2121.3
2014-Jul-23 15:34N 51°53' E 002°33'2020.1
2014-Jul-23 14:34N 52°03' E 003°01'2020.3
2014-Jul-23 13:33N 52°04' E 003°34'1514.7
2014-Jul-23 12:33N 52°01' E 003°57'1211.5
2014-Jul-23 11:33N 51°56' E 004°14'7 6.9
2014-Jul-23 10:33N 51°53' E 004°24'0 0.4
2014-Jul-23 09:28N 51°53' E 004°24'0 0.0
2014-Jul-23 08:31N 51°53' E 004°24'0 0.0
2014-Jul-23 07:32N 51°53' E 004°24'0 0.0
2014-Jul-23 06:28N 51°53' E 004°24'0 0.0
2014-Jul-23 05:31N 51°53' E 004°24'0 0.0
2014-Jul-23 04:28N 51°53' E 004°24'0 0.0
2014-Jul-23 03:28N 51°53' E 004°24'0 0.0
2014-Jul-23 02:31N 51°53' E 004°24'0 0.0
2014-Jul-23 01:31N 51°53' E 004°24'0 0.0
2014-Jul-23 00:28N 51°53' E 004°24'0 0.0
2014-Jul-22 23:31N 51°53' E 004°24'0 0.0
2014-Jul-22 22:31N 51°53' E 004°24'0 0.0
2014-Jul-22 21:31N 51°53' E 004°24'0 0.0
2014-Jul-22 20:31N 51°53' E 004°24'0 0.0
2014-Jul-22 19:31N 51°53' E 004°24'0 0.0
2014-Jul-22 18:31N 51°53' E 004°24'0 0.0
2014-Jul-22 17:22N 51°53' E 004°24'0 0.0
2014-Jul-22 16:33N 51°53' E 004°24'0 0.0
2014-Jul-22 15:27N 51°53' E 004°24'0 0.0
2014-Jul-22 14:33N 51°53' E 004°24'0 0.0
2014-Jul-22 13:30N 51°53' E 004°24'0 0.0
2014-Jul-22 12:33N 51°53' E 004°24'4 4.0
2014-Jul-22 11:33N 51°54' E 004°18'10 9.7
2014-Jul-22 10:33N 51°59' E 004°05'1212.0
2014-Jul-22 09:33N 52°03' E 003°46'1111.1
2014-Jul-22 08:33N 52°14' E 003°47'1111.0
2014-Jul-22 07:33N 52°25' E 003°49'1313.4
2014-Jul-22 06:33N 52°38' E 003°53'1413.6
2014-Jul-22 05:33N 52°51' E 003°58'1414.3
2014-Jul-22 04:33N 53°03' E 004°11'1515.4
2014-Jul-22 03:33N 53°15' E 004°28'1515.3
2014-Jul-22 02:33N 53°28' E 004°40'1514.9
2014-Jul-22 01:33N 53°35' E 005°02'1514.9
2014-Jul-22 00:33N 53°38' E 005°27'1514.5
2014-Jul-21 23:33N 53°43' E 005°50'1514.7
2014-Jul-21 22:33N 53°48' E 006°13'1514.9
2014-Jul-21 21:33N 53°52' E 006°37'1615.1
2014-Jul-21 20:30N 53°56' E 007°04'315.0
2014-Jul-21 20:18N 53°57' E 007°09'1115.2
2014-Jul-21 19:33N 53°59' E 007°28'1514.9
2014-Jul-21 18:33N 54°01' E 007°52'1313.5
2014-Jul-21 17:34N 54°00' E 008°15'1615.6
2014-Jul-21 16:33N 53°55' E 008°40'1313.0
2014-Jul-21 15:33N 53°52' E 009°01'1313.1
2014-Jul-21 14:33N 53°48' E 009°23'1414.0
2014-Jul-21 13:33N 53°36' E 009°35'1111.2
2014-Jul-21 12:33N 53°33' E 009°53'1 0.8
2014-Jul-21 11:31N 53°32' E 009°55'0 0.0
2014-Jul-21 10:31N 53°32' E 009°55'0 0.0
2014-Jul-21 09:31N 53°32' E 009°55'0 0.0
2014-Jul-21 08:33N 53°32' E 009°55'0 0.0
2014-Jul-21 07:33N 53°32' E 009°55'0 0.0
2014-Jul-21 06:30N 53°32' E 009°55'0 0.0
2014-Jul-21 05:30N 53°32' E 009°55'0 0.0
2014-Jul-21 04:31N 53°32' E 009°55'0 0.0
2014-Jul-21 03:33N 53°32' E 009°55'0 0.0
2014-Jul-21 02:33N 53°32' E 009°55'0 0.0
2014-Jul-21 01:33N 53°32' E 009°55'0 0.0
2014-Jul-21 00:30N 53°32' E 009°55'0 0.0
2014-Jul-20 23:33N 53°32' E 009°55'0 0.0
2014-Jul-20 22:30N 53°32' E 009°55'0 0.0
2014-Jul-20 21:33N 53°32' E 009°55'0 0.0
2014-Jul-20 20:33N 53°32' E 009°55'0 0.0
2014-Jul-20 19:33N 53°32' E 009°55'0 0.0
2014-Jul-20 18:33N 53°32' E 009°55'0 0.0
2014-Jul-20 17:33N 53°32' E 009°55'1 1.2
2014-Jul-20 16:33N 53°32' E 009°53'8 7.7
2014-Jul-20 15:33N 53°34' E 009°40'9 9.1
2014-Jul-20 14:32N 53°41' E 009°30'1111.6
2014-Jul-20 13:32N 53°51' E 009°19'1010.4
2014-Jul-20 12:33N 53°52' E 009°02'1211.8
2014-Jul-20 11:33N 53°53' E 008°42'1414.3
2014-Jul-20 10:33N 53°59' E 008°20'1111.2
2014-Jul-20 09:34N 53°60' E 008°01'8 7.6
2014-Jul-20 08:33N 54°00' E 007°48'1 1.4
2014-Jul-20 07:34N 54°00' E 007°46'4 3.6
2014-Jul-20 06:33N 53°57' E 007°43'6 6.3
2014-Jul-20 05:33N 53°56' E 007°33'1716.7
2014-Jul-20 04:33N 53°52' E 007°05'1212.5
2014-Jul-20 03:33N 53°49' E 006°44'10 9.9
2014-Jul-20 02:33N 53°46' E 006°28'10 9.9
2014-Jul-20 01:33N 53°43' E 006°12'10 9.9
2014-Jul-20 00:33N 53°40' E 005°56'10 9.9
2014-Jul-19 23:33N 53°37' E 005°41'1010.0
2014-Jul-19 22:33N 53°33' E 005°25'1010.0
2014-Jul-19 21:33N 53°30' E 005°09'1010.0
2014-Jul-19 20:33N 53°26' E 004°53'10 9.6
2014-Jul-19 19:33N 53°21' E 004°40'1010.1
2014-Jul-19 18:32N 53°12' E 004°31'32 9.7
2014-Jul-19 15:17N 52°44' E 004°06'7 9.5
2014-Jul-19 14:32N 52°39' E 003°58'9 9.4
2014-Jul-19 13:33N 52°32' E 003°48'10 9.6
2014-Jul-19 12:32N 52°25' E 003°36'11 9.5
2014-Jul-19 11:22N 52°18' E 003°23'1915.9
2014-Jul-19 10:09N 52°12' E 002°53'1218.8
2014-Jul-19 09:30N 52°06' E 002°36'1919.7
2014-Jul-19 08:34N 51°54' E 002°12'1817.9
2014-Jul-19 07:34N 51°50' E 001°44'1212.1
2014-Jul-19 06:33N 51°43' E 001°29'1919.1
2014-Jul-19 05:33N 51°31' E 001°04'1716.7
2014-Jul-19 04:34N 51°30' E 000°37'1110.6
2014-Jul-19 03:34N 51°27' E 000°21'1 0.9
2014-Jul-19 02:34N 51°28' E 000°20'0 0.0
2014-Jul-19 01:31N 51°28' E 000°20'0 0.0
2014-Jul-19 00:32N 51°28' E 000°20'0 0.0
2014-Jul-18 23:33N 51°28' E 000°20'0 0.0
2014-Jul-18 22:33N 51°28' E 000°20'0 0.0
2014-Jul-18 21:33N 51°28' E 000°20'0 0.0
2014-Jul-18 20:33N 51°28' E 000°20'0 0.0
2014-Jul-18 19:34N 51°28' E 000°20'0 0.0
2014-Jul-18 18:34N 51°28' E 000°20'0 0.0
2014-Jul-18 17:34N 51°28' E 000°20'0 0.0
2014-Jul-18 16:34N 51°28' E 000°20'0 0.0
2014-Jul-18 15:34N 51°28' E 000°20'0 0.0
2014-Jul-18 14:34N 51°28' E 000°20'0 0.0
2014-Jul-18 13:34N 51°28' E 000°20'0 0.0
2014-Jul-18 12:34N 51°28' E 000°20'0 0.0
2014-Jul-18 11:34N 51°28' E 000°20'0 0.0
2014-Jul-18 10:34N 51°28' E 000°20'0 0.0
2014-Jul-18 09:34N 51°28' E 000°20'0 0.0
2014-Jul-18 08:34N 51°28' E 000°20'0 0.0
2014-Jul-18 07:34N 51°28' E 000°20'0 0.0
2014-Jul-18 06:34N 51°28' E 000°20'0 0.0
2014-Jul-18 05:33N 51°28' E 000°20'0 0.0
2014-Jul-18 04:33N 51°28' E 000°20'0 0.0
2014-Jul-18 03:33N 51°28' E 000°20'0 0.0
2014-Jul-18 02:33N 51°28' E 000°20'4 4.3
2014-Jul-18 01:33N 51°28' E 000°27'1010.0
2014-Jul-18 00:34N 51°30' E 000°43'1413.7
2014-Jul-17 23:33N 51°31' E 001°05'1818.4
2014-Jul-17 22:33N 51°42' E 001°28'1313.3
2014-Jul-17 21:33N 51°52' E 001°44'1111.2
2014-Jul-17 20:34N 51°41' E 001°50'1110.9
2014-Jul-17 19:33N 51°30' E 001°48'1312.6
2014-Jul-17 18:33N 51°18' E 001°41'1212.0
2014-Jul-17 17:33N 51°06' E 001°40'1514.7
2014-Jul-17 16:34N 50°55' E 001°25'1515.0
2014-Jul-17 15:33N 50°41' E 001°16'1515.1
2014-Jul-17 14:33N 50°32' E 000°57'1514.9
2014-Jul-17 13:33N 50°27' E 000°35'1514.8
2014-Jul-17 12:31N 50°22' E 000°12'1715.7
2014-Jul-17 11:28N 50°18' W 000°13'1416.0
2014-Jul-17 10:34N 50°14' W 000°34'1616.0
2014-Jul-17 09:34N 50°10' W 000°59'1616.0
2014-Jul-17 08:34N 50°06' W 001°23'1615.9
2014-Jul-17 07:33N 50°02' W 001°47'1715.9
2014-Jul-17 06:28N 49°56' W 002°12'1415.5
2014-Jul-17 05:33N 49°52' W 002°33'1715.7
2014-Jul-17 04:29N 49°47' W 002°58'61515.8
2014-Jul-15 13:32N 40°45' W 009°51'10416.9
2014-Jul-15 07:22N 39°01' W 009°51'1516.5
2014-Jul-15 06:26N 38°46' W 009°52'1916.8
2014-Jul-15 05:16N 38°27' W 009°47'2916.8
2014-Jul-15 03:34N 37°59' W 009°38'1717.0
2014-Jul-15 02:33N 37°42' W 009°34'1716.8
2014-Jul-15 01:33N 37°26' W 009°29'1616.4
2014-Jul-15 00:33N 37°10' W 009°24'3515.1
2014-Jul-14 22:13N 36°42' W 008°57'1217.0
2014-Jul-14 21:32N 36°38' W 008°43'1616.5
2014-Jul-14 20:33N 36°33' W 008°24'1716.5
2014-Jul-14 19:33N 36°28' W 008°05'1716.6
2014-Jul-14 18:33N 36°22' W 007°45'1716.5
2014-Jul-14 17:31N 36°17' W 007°25'1616.7
2014-Jul-14 16:33N 36°12' W 007°06'  

Dump ship's entire track history